Time;durP1;ratioP1;P1;durP2;ratioP2;P2;SDS_P1;SDS_P2;PMS_P1;PMS_P2;Temp;Humidity;BMP_temperature;BMP_pressure;BME280_temperature;BME280_humidity;BME280_pressure;Samples;Min_cycle;Max_cycle;Signal;HPM_P1;HPM_P2
2021/07/03 00:00:13;;;;;;;7.65;4.97;;;;;;;18.39;76.62;99719.10;1729247;80;25746;-69
2021/07/03 00:02:41;;;;;;;6.03;5.40;;;;;;;18.39;76.72;99717.73;1712265;81;25994;-69
2021/07/03 00:05:09;;;;;;;5.17;4.67;;;;;;;18.39;76.76;99721.84;1725188;80;25705;-68
2021/07/03 00:07:35;;;;;;;5.37;4.55;;;;;;;18.40;76.83;99719.29;1739625;80;27861;-70
2021/07/03 00:10:04;;;;;;;6.20;5.03;;;;;;;18.40;76.84;99718.52;1725941;80;25935;-70
2021/07/03 00:12:31;;;;;;;5.15;4.65;;;;;;;18.40;76.98;99718.52;1722013;80;25779;-70
2021/07/03 00:14:57;;;;;;;4.97;4.55;;;;;;;18.38;77.09;99716.14;1739394;80;25861;-70
2021/07/03 00:17:25;;;;;;;5.62;4.58;;;;;;;18.36;77.09;99716.33;1733961;80;25753;-68
2021/07/03 00:19:51;;;;;;;10.15;5.40;;;;;;;18.34;77.22;99719.44;1741358;80;27295;-65
2021/07/03 00:30:10;;;;;;;5.95;5.05;;;;;;;18.05;78.94;99710.14;1733422;80;26347;-65
2021/07/03 00:32:37;;;;;;;6.25;4.95;;;;;;;17.92;79.73;99704.89;1736410;80;25855;-63
2021/07/03 00:35:07;;;;;;;6.35;4.67;;;;;;;17.87;79.85;99712.65;1748813;80;27400;-63
2021/07/03 00:37:34;;;;;;;5.50;4.90;;;;;;;17.82;80.17;99715.09;1715740;81;25918;-63
2021/07/03 00:40:00;;;;;;;6.00;4.90;;;;;;;17.79;80.22;99724.04;1729529;80;25914;-63
2021/07/03 00:42:29;;;;;;;6.28;5.67;;;;;;;17.76;80.34;99711.69;1739551;80;26629;-63
2021/07/03 00:44:56;;;;;;;6.17;5.58;;;;;;;17.69;80.24;99710.45;1741791;80;25782;-63
2021/07/03 00:47:22;;;;;;;5.90;5.40;;;;;;;17.66;80.51;99709.05;1731017;80;27466;-63
2021/07/03 00:49:49;;;;;;;7.62;6.17;;;;;;;17.63;80.60;99708.42;1729849;80;25752;-63
2021/07/03 00:52:15;;;;;;;6.28;5.67;;;;;;;17.61;81.08;99708.78;1704064;83;26961;-63
2021/07/03 00:54:44;;;;;;;6.55;5.37;;;;;;;17.58;81.04;99706.78;1698951;82;25964;-63
2021/07/03 00:57:11;;;;;;;6.90;5.75;;;;;;;17.55;81.22;99705.59;1706140;83;25854;-63
2021/07/03 00:59:41;;;;;;;6.65;5.92;;;;;;;17.54;81.66;99696.39;1701476;82;27339;-63
2021/07/03 01:02:11;;;;;;;6.28;5.70;;;;;;;17.54;81.49;99701.86;1728968;81;25727;-63
2021/07/03 01:04:38;;;;;;;6.08;5.53;;;;;;;17.54;81.71;99698.54;1692588;82;25742;-63
2021/07/03 01:07:07;;;;;;;6.45;5.80;;;;;;;17.54;81.71;99699.91;1727029;81;25930;-63
2021/07/03 01:09:34;;;;;;;5.58;5.08;;;;;;;17.54;81.96;99695.80;1709904;81;25920;-64
2021/07/03 01:12:05;;;;;;;6.25;5.75;;;;;;;17.54;81.94;99704.59;1673838;82;27397;-63
2021/07/03 01:14:35;;;;;;;5.95;4.85;;;;;;;17.53;82.00;99698.31;1721260;80;25864;-64
2021/07/03 01:17:01;;;;;;;6.28;5.50;;;;;;;17.52;82.20;99690.48;1739337;81;25787;-64
2021/07/03 01:19:28;;;;;;;7.15;5.90;;;;;;;17.52;82.36;99697.31;1743755;81;25637;-63
2021/07/03 01:21:55;;;;;;;6.40;5.90;;;;;;;17.50;82.54;99686.78;1740108;80;25681;-64
2021/07/03 01:24:24;;;;;;;5.92;5.42;;;;;;;17.49;82.42;99682.45;1739665;80;27288;-64
2021/07/03 01:26:54;;;;;;;6.27;5.67;;;;;;;17.49;82.67;99682.45;1742796;80;25756;-63
2021/07/03 01:29:24;;;;;;;6.03;5.42;;;;;;;17.50;83.02;99673.66;1724721;81;26035;-64
2021/07/03 01:31:53;;;;;;;6.22;5.62;;;;;;;17.48;82.98;99676.77;1744807;81;26213;-64
2021/07/03 01:34:23;;;;;;;6.80;6.15;;;;;;;17.48;83.15;99671.89;1739792;81;25652;-63
2021/07/03 01:36:50;;;;;;;8.58;6.22;;;;;;;17.48;83.18;99667.78;1732245;81;27386;-63
2021/07/03 01:39:17;;;;;;;6.60;5.85;;;;;;;17.47;83.16;99667.01;1746382;81;25779;-64
2021/07/03 01:41:43;;;;;;;6.28;5.75;;;;;;;17.47;83.34;99662.09;1733630;80;25740;-63
2021/07/03 01:44:13;;;;;;;6.50;5.80;;;;;;;17.46;83.24;99667.38;1735545;80;25809;-63
2021/07/03 01:46:40;;;;;;;7.12;6.20;;;;;;;17.46;83.53;99672.26;1743638;80;25763;-63
2021/07/03 01:49:09;;;;;;;7.40;6.08;;;;;;;17.46;83.51;99667.38;1683183;82;27350;-64
2021/07/03 01:51:38;;;;;;;7.58;5.87;;;;;;;17.45;83.67;99662.50;1696255;83;26623;-64
2021/07/03 01:54:04;;;;;;;6.83;5.92;;;;;;;17.46;83.75;99679.68;1705560;82;25898;-63
2021/07/03 01:56:31;;;;;;;9.70;6.20;;;;;;;17.44;83.80;99670.48;1728334;80;25784;-64
2021/07/03 01:58:58;;;;;;;10.20;5.83;;;;;;;17.44;83.89;99685.52;1727701;80;25781;-64
2021/07/03 02:01:25;;;;;;;7.00;6.15;;;;;;;17.45;84.17;99683.56;1731417;80;27336;-64
2021/07/03 02:03:51;;;;;;;6.72;5.95;;;;;;;17.45;84.06;99682.19;1734181;80;25825;-64
2021/07/03 02:06:18;;;;;;;7.08;6.47;;;;;;;17.46;84.21;99679.68;1733254;81;26589;-64
2021/07/03 02:08:44;;;;;;;6.78;6.08;;;;;;;17.46;84.28;99680.45;1734781;80;25750;-64
2021/07/03 02:11:11;;;;;;;6.70;6.03;;;;;;;17.48;84.33;99681.45;1744560;80;25874;-64
2021/07/03 02:13:37;;;;;;;6.78;6.05;;;;;;;17.48;84.37;99683.60;1692499;82;28314;-64
2021/07/03 02:16:05;;;;;;;5.85;5.20;;;;;;;17.48;84.51;99682.23;1691303;82;25717;-64
2021/07/03 02:18:31;;;;;;;5.33;4.83;;;;;;;17.49;84.57;99686.56;1739320;80;25806;-64
2021/07/03 02:20:58;;;;;;;5.55;5.12;;;;;;;17.50;84.56;99686.78;1736240;80;25789;-64
2021/07/03 02:23:24;;;;;;;5.65;5.12;;;;;;;17.52;84.77;99684.45;1734812;81;25687;-64
2021/07/03 02:25:51;;;;;;;7.37;5.50;;;;;;;17.51;84.70;99684.23;1724169;80;27400;-64
2021/07/03 02:28:18;;;;;;;5.58;4.92;;;;;;;17.52;84.77;99685.02;1724669;80;25865;-64
2021/07/03 02:30:45;;;;;;;5.20;4.70;;;;;;;17.54;84.68;99684.09;1732740;80;25897;-64
2021/07/03 02:33:12;;;;;;;4.87;4.47;;;;;;;17.54;84.77;99684.09;1737744;80;26443;-64
2021/07/03 02:35:39;;;;;;;5.00;4.60;;;;;;;17.54;84.75;99678.03;1750884;81;25857;-64
2021/07/03 02:38:06;;;;;;;5.12;4.62;;;;;;;17.54;84.88;99678.03;1714933;81;27393;-64
2021/07/03 02:40:33;;;;;;;6.30;4.25;;;;;;;17.56;84.86;99684.50;1740795;80;25759;-64
2021/07/03 02:42:59;;;;;;;4.60;4.20;;;;;;;17.58;84.86;99684.12;1749123;80;26076;-65
2021/07/03 02:45:26;;;;;;;5.55;3.95;;;;;;;17.60;84.95;99690.01;1733742;80;26420;-64
2021/07/03 02:47:53;;;;;;;4.53;4.08;;;;;;;17.62;85.02;99689.05;1743335;80;25848;-64
2021/07/03 02:50:21;;;;;;;4.37;3.98;;;;;;;17.62;85.09;99685.76;1745125;80;27316;-64
2021/07/03 02:52:48;;;;;;;5.92;3.50;;;;;;;17.63;84.93;99681.84;1742200;81;25897;-64
2021/07/03 02:55:15;;;;;;;4.30;3.90;;;;;;;17.65;85.02;99684.99;1737455;80;26574;-64
2021/07/03 02:57:41;;;;;;;5.58;4.08;;;;;;;17.67;85.09;99691.46;1720752;81;25843;-64
2021/07/03 03:00:12;;;;;;;4.50;4.05;;;;;;;17.68;85.18;99687.58;1736759;80;25668;-64
2021/07/03 03:02:39;;;;;;;4.15;3.85;;;;;;;17.68;85.27;99691.69;1733979;80;27313;-64
2021/07/03 03:05:10;;;;;;;5.65;3.87;;;;;;;17.69;85.26;99694.05;1737135;80;25878;-65
2021/07/03 03:07:38;;;;;;;4.67;4.28;;;;;;;17.71;85.25;99697.19;1735606;80;25881;-64
2021/07/03 03:10:08;;;;;;;4.58;4.17;;;;;;;17.73;85.29;99698.19;1739447;80;26861;-64
2021/07/03 03:12:35;;;;;;;4.83;4.42;;;;;;;17.73;85.30;99700.34;1686353;83;25796;-64
2021/07/03 03:15:02;;;;;;;5.12;4.72;;;;;;;17.74;85.28;99690.18;1737119;80;27369;-64
2021/07/03 03:17:31;;;;;;;6.65;5.28;;;;;;;17.74;85.30;99692.36;1740886;80;25665;-65
2021/07/03 03:19:57;;;;;;;5.85;5.35;;;;;;;17.77;85.46;99691.39;1726411;80;25727;-65
2021/07/03 03:22:24;;;;;;;5.97;5.47;;;;;;;17.78;85.45;99685.55;1683359;83;25862;-64
2021/07/03 03:24:50;;;;;;;6.72;6.08;;;;;;;17.79;85.44;99687.11;1695515;82;25812;-65
2021/07/03 03:27:17;;;;;;;9.50;6.78;;;;;;;17.78;85.30;99686.92;1696233;82;27303;-65
2021/07/03 03:29:43;;;;;;;7.42;6.80;;;;;;;17.79;85.40;99689.84;1720604;81;25732;-65
2021/07/03 03:32:10;;;;;;;7.25;6.55;;;;;;;17.80;85.51;99687.33;1736320;80;25762;-65
2021/07/03 03:34:36;;;;;;;7.75;6.92;;;;;;;17.80;85.51;99691.44;1732295;80;25797;-65
2021/07/03 03:37:03;;;;;;;8.75;7.50;;;;;;;17.81;85.52;99688.92;1735887;80;25793;-65
2021/07/03 03:39:31;;;;;;;8.45;7.65;;;;;;;17.81;85.56;99690.28;1715342;81;27521;-65
2021/07/03 03:41:57;;;;;;;9.58;8.60;;;;;;;17.80;85.61;99691.44;1725716;80;25816;-64
2021/07/03 03:44:24;;;;;;;10.58;8.95;;;;;;;17.80;85.66;99689.29;1660869;84;25758;-64
2021/07/03 03:46:53;;;;;;;9.83;8.83;;;;;;;17.81;85.72;99692.22;1731288;81;25753;-65
2021/07/03 03:49:21;;;;;;;10.13;9.05;;;;;;;17.80;85.85;99692.02;1725592;81;25802;-64
2021/07/03 03:51:49;;;;;;;9.78;8.73;;;;;;;17.83;85.98;99695.39;1695669;83;27313;-64
2021/07/03 03:54:17;;;;;;;10.28;8.93;;;;;;;17.83;86.05;99692.66;1723312;81;25731;-64
2021/07/03 03:56:44;;;;;;;9.70;8.73;;;;;;;17.83;86.05;99695.39;1732973;81;26520;-64
2021/07/03 03:59:14;;;;;;;10.58;9.55;;;;;;;17.84;85.99;99695.58;1726544;81;25646;-65
2021/07/03 04:01:40;;;;;;;9.95;8.90;;;;;;;17.84;86.11;99690.91;1741038;80;25730;-65
2021/07/03 04:04:07;;;;;;;10.18;8.68;;;;;;;17.83;86.09;99693.43;1741307;80;27300;-65
2021/07/03 04:06:33;;;;;;;12.78;9.28;;;;;;;17.84;86.27;99692.84;1744027;80;25830;-65
2021/07/03 04:09:00;;;;;;;9.20;8.30;;;;;;;17.84;86.42;99696.39;1740659;80;25910;-64
2021/07/03 04:11:26;;;;;;;12.98;8.68;;;;;;;17.86;86.40;99693.25;1746078;80;25916;-65
2021/07/03 04:13:52;;;;;;;13.95;9.08;;;;;;;17.86;86.43;99691.36;1739573;80;25899;-65
2021/07/03 04:16:18;;;;;;;10.93;9.08;;;;;;;17.88;86.55;99690.98;1740149;80;27379;-64
2021/07/03 04:18:45;;;;;;;10.85;9.80;;;;;;;17.89;86.65;99692.54;1731912;80;25865;-65
2021/07/03 04:21:11;;;;;;;9.93;9.03;;;;;;;17.89;86.70;99692.54;1726833;80;25646;-64
2021/07/03 04:23:39;;;;;;;17.95;9.95;;;;;;;17.89;87.00;99691.98;1743217;81;26348;-64
2021/07/03 04:26:06;;;;;;;12.37;11.08;;;;;;;17.89;86.82;99693.35;1744829;80;25983;-64
2021/07/03 04:28:32;;;;;;;11.25;10.05;;;;;;;17.91;86.96;99688.84;1729166;81;27412;-65
2021/07/03 04:30:59;;;;;;;14.70;11.12;;;;;;;17.90;86.84;99699.02;1737696;80;25727;-65
2021/07/03 04:33:25;;;;;;;12.23;10.45;;;;;;;17.91;86.95;99691.58;1731615;80;26021;-65
2021/07/03 04:35:51;;;;;;;12.65;10.82;;;;;;;17.92;87.06;99692.58;1744657;80;27852;-64
2021/07/03 04:38:19;;;;;;;12.13;10.65;;;;;;;17.92;87.05;99695.31;1711506;81;25780;-64
2021/07/03 04:40:46;;;;;;;11.20;10.05;;;;;;;17.91;87.08;99696.50;1731788;80;27349;-64
2021/07/03 04:43:12;;;;;;;14.63;11.57;;;;;;;17.92;87.12;99696.69;1730901;80;25900;-65
2021/07/03 04:45:39;;;;;;;15.25;11.85;;;;;;;17.93;87.11;99696.13;1737449;81;25925;-65
2021/07/03 04:48:05;;;;;;;12.28;11.00;;;;;;;17.96;87.22;99695.94;1750478;80;25759;-65
2021/07/03 04:50:32;;;;;;;16.87;12.50;;;;;;;17.95;87.22;99697.13;1742374;80;25868;-64
2021/07/03 04:52:58;;;;;;;15.15;11.15;;;;;;;17.95;87.32;99696.53;1747576;80;27410;-63
2021/07/03 04:55:24;;;;;;;15.40;11.68;;;;;;;17.94;87.26;99706.48;1729869;80;26516;-64
2021/07/03 04:57:52;;;;;;;12.30;11.10;;;;;;;17.93;87.56;99694.76;1709906;81;26485;-64
2021/07/03 05:00:19;;;;;;;13.90;11.95;;;;;;;17.94;87.41;99701.01;1732094;80;25884;-64
2021/07/03 05:02:46;;;;;;;13.30;11.55;;;;;;;17.92;87.46;99702.16;1736779;80;25719;-64
2021/07/03 05:05:12;;;;;;;16.93;12.20;;;;;;;17.95;87.60;99706.11;1716963;81;27229;-64
2021/07/03 05:07:42;;;;;;;14.53;12.03;;;;;;;17.95;87.55;99712.17;1745364;80;25641;-64
2021/07/03 05:10:12;;;;;;;15.55;12.40;;;;;;;17.96;87.69;99714.50;1737035;81;25656;-64
2021/07/03 05:12:39;;;;;;;17.73;12.13;;;;;;;17.98;87.81;99712.77;1716578;80;26460;-63
2021/07/03 05:15:06;;;;;;;16.75;12.00;;;;;;;18.00;87.94;99714.58;1738158;80;25865;-64
2021/07/03 05:17:33;;;;;;;17.27;11.55;;;;;;;18.03;88.00;99717.35;1729242;80;27327;-65
2021/07/03 05:19:59;;;;;;;12.58;9.70;;;;;;;18.05;87.95;99713.66;1745981;81;27126;-63
2021/07/03 05:22:26;;;;;;;11.88;10.55;;;;;;;18.08;87.90;99721.68;1689471;83;26279;-64
2021/07/03 05:24:52;;;;;;;10.63;9.53;;;;;;;18.06;87.93;99705.63;1699960;83;26393;-64
2021/07/03 05:27:20;;;;;;;10.58;9.43;;;;;;;18.09;87.86;99715.84;1727100;81;25760;-64
2021/07/03 05:29:46;;;;;;;13.48;9.98;;;;;;;18.11;87.98;99720.35;1692773;82;27372;-64
2021/07/03 05:32:12;;;;;;;13.60;11.15;;;;;;;18.13;87.92;99717.24;1737696;80;25710;-64
2021/07/03 05:34:38;;;;;;;11.78;10.65;;;;;;;18.15;87.99;99713.58;1737936;80;25852;-65
2021/07/03 05:37:06;;;;;;;12.20;10.95;;;;;;;18.15;87.90;99713.58;1731427;80;25785;-65
2021/07/03 05:39:33;;;;;;;16.60;11.90;;;;;;;18.15;87.92;99717.68;1712228;81;26082;-65
2021/07/03 05:42:01;;;;;;;14.23;12.70;;;;;;;18.17;88.05;99720.82;1707832;81;27506;-65
2021/07/03 05:44:29;;;;;;;17.55;13.60;;;;;;;18.18;88.15;99715.54;1728706;80;25750;-64
2021/07/03 05:46:55;;;;;;;15.45;12.63;;;;;;;18.20;88.17;99715.98;1728204;80;25817;-64
2021/07/03 05:49:22;;;;;;;14.53;12.30;;;;;;;18.21;88.17;99722.23;1742273;80;25783;-65
2021/07/03 05:51:48;;;;;;;14.40;12.40;;;;;;;18.22;88.20;99717.75;1739317;80;25883;-65
2021/07/03 05:54:16;;;;;;;18.90;12.98;;;;;;;18.23;88.16;99719.90;1729979;80;29625;-65
2021/07/03 05:56:42;;;;;;;17.75;13.03;;;;;;;18.24;88.32;99724.22;1719435;81;25711;-65
2021/07/03 05:59:09;;;;;;;20.80;14.25;;;;;;;18.26;88.51;99729.52;1741327;80;25875;-63
2021/07/03 06:01:35;;;;;;;19.90;14.90;;;;;;;18.29;88.49;99724.66;1783926;76;25685;-70
2021/07/03 06:04:02;;;;;;;18.52;14.58;;;;;;;18.33;88.61;99729.39;1791030;78;25919;-70
2021/07/03 06:06:28;;;;;;;18.45;14.53;;;;;;;18.35;88.67;99727.84;1753011;79;27035;-71
2021/07/03 06:08:54;;;;;;;22.00;15.10;;;;;;;18.37;88.59;99730.20;1773616;77;25521;-70
2021/07/03 06:11:21;;;;;;;20.15;15.13;;;;;;;18.36;88.45;99728.06;1787505;77;26513;-71
2021/07/03 06:13:47;;;;;;;23.02;15.58;;;;;;;18.37;88.57;99733.75;1768532;78;26450;-72
2021/07/03 06:16:14;;;;;;;22.73;16.25;;;;;;;18.40;88.72;99736.31;1771688;79;25862;-71
2021/07/03 06:18:41;;;;;;;22.90;16.07;;;;;;;18.42;88.73;99736.72;1789300;78;27404;-71
2021/07/03 06:21:07;;;;;;;25.45;16.30;;;;;;;18.44;88.79;99744.77;1737403;81;25910;-72
2021/07/03 06:23:34;;;;;;;24.57;16.80;;;;;;;18.46;88.65;99744.40;1719225;81;25877;-72
2021/07/03 06:26:03;;;;;;;23.10;17.32;;;;;;;18.46;88.53;99745.77;1726546;80;26500;-72
2021/07/03 06:28:31;;;;;;;23.37;16.97;;;;;;;18.47;88.64;99738.55;1738990;80;27059;-73
2021/07/03 06:30:59;;;;;;;19.75;17.07;;;;;;;18.48;88.71;99736.59;1752990;80;27310;-73
2021/07/03 06:33:25;;;;;;;22.93;17.62;;;;;;;18.48;88.61;99743.44;1733379;80;25690;-73
2021/07/03 06:35:52;;;;;;;23.90;16.30;;;;;;;18.50;88.84;99746.58;1729344;81;25726;-72
2021/07/03 06:38:18;;;;;;;28.40;17.50;;;;;;;18.53;88.93;99745.05;1727728;80;25798;-72
2021/07/03 06:40:45;;;;;;;26.07;17.87;;;;;;;18.55;88.92;99748.20;1737405;80;25822;-75
2021/07/03 06:43:11;;;;;;;24.98;17.77;;;;;;;18.57;89.12;99741.76;1773071;78;27371;-73
2021/07/03 06:45:38;;;;;;;25.37;18.37;;;;;;;18.61;89.22;99751.59;1764208;80;25862;-75
2021/07/03 06:48:09;;;;;;;23.40;18.02;;;;;;;18.63;89.04;99747.11;1677499;82;25871;-73
2021/07/03 06:50:35;;;;;;;24.65;16.57;;;;;;;18.65;88.93;99751.03;1726106;80;25813;-73
2021/07/03 06:53:02;;;;;;;28.20;17.77;;;;;;;18.67;89.11;99749.29;1766781;79;26188;-73
2021/07/03 06:55:28;;;;;;;26.02;18.82;;;;;;;18.70;89.19;99751.28;1777699;78;28215;-73
2021/07/03 06:57:54;;;;;;;27.40;18.57;;;;;;;18.72;89.21;99755.80;1730307;80;25851;-74
2021/07/03 07:00:21;;;;;;;22.48;17.00;;;;;;;18.77;89.24;99761.52;1776493;78;25674;-73
2021/07/03 07:02:48;;;;;;;25.85;17.75;;;;;;;18.77;89.03;99759.56;1783453;77;26199;-75
2021/07/03 07:05:14;;;;;;;23.52;16.95;;;;;;;18.78;89.03;99756.23;1776738;78;25874;-76
2021/07/03 07:07:41;;;;;;;27.55;17.70;;;;;;;18.80;89.08;99756.66;1724457;80;27271;-75
2021/07/03 07:10:09;;;;;;;25.77;17.40;;;;;;;18.83;89.13;99755.91;1722010;81;26416;-75
2021/07/03 07:12:35;;;;;;;25.85;17.77;;;;;;;18.85;89.16;99755.75;1742753;80;25906;-75
2021/07/03 07:15:02;;;;;;;21.45;17.00;;;;;;;18.88;89.37;99750.67;1767777;80;25924;-75
2021/07/03 07:17:28;;;;;;;24.87;17.62;;;;;;;18.94;89.55;99753.28;1783387;78;25665;-75
2021/07/03 07:19:54;;;;;;;22.32;18.17;;;;;;;19.00;89.75;99756.67;1785426;78;27300;-72
2021/07/03 07:22:21;;;;;;;21.75;16.95;;;;;;;19.05;89.63;99763.73;1780765;77;25873;-72
2021/07/03 07:24:47;;;;;;;26.33;17.92;;;;;;;19.10;89.55;99763.38;1745730;80;25838;-72
2021/07/03 07:27:14;;;;;;;27.05;18.23;;;;;;;19.15;89.60;99759.52;1742594;80;25660;-72
2021/07/03 07:29:40;;;;;;;27.98;17.70;;;;;;;19.18;89.57;99761.50;1741181;79;25734;-71
2021/07/03 07:32:07;;;;;;;23.52;16.93;;;;;;;19.22;89.59;99759.00;1735596;80;27368;-72
2021/07/03 07:34:34;;;;;;;24.92;17.62;;;;;;;19.26;89.55;99761.76;1713994;81;26580;-72
2021/07/03 07:37:01;;;;;;;26.48;18.80;;;;;;;19.30;89.42;99754.92;1725050;81;25690;-71
2021/07/03 07:39:27;;;;;;;23.62;16.48;;;;;;;19.35;89.67;99756.72;1759941;80;25841;-73
2021/07/03 07:41:54;;;;;;;24.05;16.27;;;;;;;19.40;89.60;99751.47;1752922;78;25933;-72
2021/07/03 07:44:20;;;;;;;22.30;16.65;;;;;;;19.45;89.30;99748.96;1780309;78;29553;-72
2021/07/03 07:46:46;;;;;;;18.40;16.30;;;;;;;19.49;89.40;99744.27;1784936;78;25809;-72
2021/07/03 07:49:13;;;;;;;19.42;15.88;;;;;;;19.53;89.35;99743.13;1776937;78;26016;-72
2021/07/03 07:51:39;;;;;;;23.20;18.50;;;;;;;19.54;89.03;99748.80;1749888;80;25816;-72
2021/07/03 07:54:06;;;;;;;21.02;16.65;;;;;;;19.58;89.09;99740.59;1738583;80;26569;-72
2021/07/03 07:56:32;;;;;;;21.10;16.07;;;;;;;19.62;88.98;99744.16;1750630;80;27321;-72
2021/07/03 07:58:59;;;;;;;21.07;15.90;;;;;;;19.65;88.95;99747.52;1774931;77;26770;-72
2021/07/03 08:01:25;;;;;;;21.70;16.73;;;;;;;19.70;89.10;99747.70;1784754;78;25858;-72
2021/07/03 08:03:52;;;;;;;21.60;16.60;;;;;;;19.74;89.15;99751.28;1784475;78;27854;-72
2021/07/03 08:06:18;;;;;;;25.00;17.82;;;;;;;19.78;88.86;99752.91;1797109;78;25645;-72
2021/07/03 08:08:45;;;;;;;22.52;16.37;;;;;;;19.82;88.77;99754.86;1785894;78;27357;-73
2021/07/03 08:11:11;;;;;;;21.33;16.45;;;;;;;19.88;88.85;99762.94;1775749;78;25991;-71
2021/07/03 08:13:37;;;;;;;23.07;16.40;;;;;;;19.90;88.70;99764.14;1784107;78;25400;-71
2021/07/03 08:16:26;;;;;;;22.22;15.70;;;;;;;19.95;88.52;99763.77;1798256;78;26678;-73
2021/07/03 08:18:52;;;;;;;17.77;15.60;;;;;;;19.98;88.17;99766.31;1684037;83;25792;-72
2021/07/03 08:21:19;;;;;;;18.40;15.88;;;;;;;20.00;88.15;99768.08;1686441;82;27326;-73
2021/07/03 08:23:45;;;;;;;20.32;16.12;;;;;;;20.05;88.39;99762.81;1699572;81;26505;-74
2021/07/03 08:26:12;;;;;;;24.18;17.32;;;;;;;20.13;88.67;99759.70;1701178;81;25800;-73
2021/07/03 08:28:38;;;;;;;19.92;17.65;;;;;;;20.18;88.96;99757.18;1702562;81;27755;-73
2021/07/03 08:31:05;;;;;;;22.07;18.05;;;;;;;20.31;89.52;99764.46;1687758;81;26615;-73
2021/07/03 08:33:31;;;;;;;20.60;16.85;;;;;;;20.42;89.50;99757.64;1696184;81;29568;-72
2021/07/03 08:35:58;;;;;;;18.60;16.57;;;;;;;20.50;88.93;99759.23;1704204;81;26500;-72
2021/07/03 08:38:24;;;;;;;20.32;16.37;;;;;;;20.58;89.11;99762.17;1708363;81;25897;-72
2021/07/03 08:40:52;;;;;;;22.67;15.95;;;;;;;20.66;88.84;99770.66;1700139;81;25794;-72
2021/07/03 08:43:18;;;;;;;18.57;15.45;;;;;;;20.74;88.52;99763.23;1693937;81;26066;-70
2021/07/03 08:45:45;;;;;;;18.35;15.43;;;;;;;20.82;88.51;99764.81;1693985;82;27380;-77
2021/07/03 08:48:16;;;;;;;17.92;14.28;;;;;;;20.94;88.44;99765.59;1705957;81;25867;-74
2021/07/03 08:50:43;;;;;;;21.65;15.28;;;;;;;21.03;87.96;99760.50;1695816;81;26568;-82
2021/07/03 08:53:09;;;;;;;16.27;14.68;;;;;;;21.13;87.94;99765.77;1689751;81;26648;-79
2021/07/03 08:55:36;;;;;;;18.60;15.20;;;;;;;21.21;87.65;99757.72;1709366;81;25880;-81
2021/07/03 08:58:05;;;;;;;17.87;15.48;;;;;;;21.30;87.45;99769.12;1723007;80;27362;-79
2021/07/03 09:00:42;;;;;;;;;;;;;;;21.38;87.54;99772.64;1735645;80;26404;-80
2021/07/03 09:03:22;;;;;;;17.55;14.73;;;;;;;21.50;87.46;99775.00;1729104;80;26040;-80
2021/07/03 09:05:54;;;;;;;16.77;14.87;;;;;;;21.60;87.57;99782.45;1721573;80;26531;-81
2021/07/03 09:08:25;;;;;;;18.17;14.33;;;;;;;21.69;86.73;99777.93;1708335;81;25732;-78
2021/07/03 09:11:07;;;;;;;15.32;13.72;;;;;;;21.77;86.67;99775.33;1723965;81;27893;-78
2021/07/03 09:13:36;;;;;;;18.70;13.40;;;;;;;21.84;85.99;99782.78;1693381;81;25836;-68
2021/07/03 09:16:04;;;;;;;18.00;13.75;;;;;;;21.89;85.39;99781.00;1745714;79;25817;-77
2021/07/03 09:18:31;;;;;;;15.63;13.88;;;;;;;21.90;84.71;99792.21;1735201;80;25782;-71
2021/07/03 09:21:01;;;;;;;15.03;13.15;;;;;;;21.87;83.80;99787.50;1731501;80;25945;-73
2021/07/03 09:23:39;;;;;;;16.12;12.75;;;;;;;21.80;83.15;99792.43;1728410;80;27411;-72
2021/07/03 09:26:10;;;;;;;16.82;13.43;;;;;;;21.75;82.92;99792.06;1715955;81;25899;-71
2021/07/03 09:28:41;;;;;;;21.12;14.78;;;;;;;21.71;82.47;99794.83;1747120;80;25710;-79
2021/07/03 09:31:13;;;;;;;18.07;13.72;;;;;;;21.67;82.44;99787.16;1747054;79;26585;-77
2021/07/03 09:33:47;;;;;;;26.25;13.10;;;;;;;21.61;82.06;99781.88;1771467;78;25780;-75
2021/07/03 09:36:17;;;;;;;15.15;12.50;;;;;;;21.55;82.32;99791.70;1755690;80;28342;-85
2021/07/03 09:38:49;;;;;;;15.05;13.00;;;;;;;21.56;82.58;99785.03;1768588;79;26709;-76
2021/07/03 09:41:35;;;;;;;18.90;12.33;;;;;;;21.56;82.39;99785.03;1774589;79;25918;-77
2021/07/03 09:44:08;;;;;;;16.85;13.45;;;;;;;21.59;82.82;99786.97;1764910;79;26072;-79
2021/07/03 09:46:48;;;;;;;16.37;14.68;;;;;;;21.64;82.71;99789.34;1770367;78;26352;-77
2021/07/03 09:49:30;;;;;;;14.15;12.58;;;;;;;21.68;82.59;99783.83;1707642;81;28178;-75
2021/07/03 09:52:00;;;;;;;15.30;12.50;;;;;;;21.78;83.30;99785.17;1743789;80;26670;-77
2021/07/03 09:54:30;;;;;;;19.92;16.02;;;;;;;21.95;83.73;99784.14;1740838;80;26175;-78
2021/07/03 09:57:00;;;;;;;23.83;19.30;;;;;;;22.10;83.17;99782.09;1768488;79;26253;-74
2021/07/03 09:59:32;;;;;;;15.93;13.18;;;;;;;22.24;83.18;99775.77;1769776;79;26454;-71
2021/07/03 10:01:59;;;;;;;14.70;12.78;;;;;;;22.40;83.02;99770.58;1776156;79;27379;-68
2021/07/03 10:04:26;;;;;;;14.07;12.58;;;;;;;22.55;82.28;99769.30;1768265;79;27202;-67
2021/07/03 10:07:06;;;;;;;14.40;12.65;;;;;;;22.70;81.92;99769.23;1775321;79;26428;-70
2021/07/03 10:09:51;;;;;;;13.10;11.35;;;;;;;22.83;81.75;99768.94;1735915;80;26273;-67
2021/07/03 10:12:28;;;;;;;12.15;10.38;;;;;;;22.98;81.21;99764.68;1723126;81;25852;-67
2021/07/03 10:14:55;;;;;;;15.98;11.78;;;;;;;23.10;80.63;99757.31;1743110;79;27271;-67
2021/07/03 10:17:34;;;;;;;15.08;11.00;;;;;;;23.19;79.78;99751.32;1742028;80;25805;-69
2021/07/03 10:20:07;;;;;;;15.90;10.50;;;;;;;23.21;79.41;99754.48;1736931;81;26332;-68
2021/07/03 10:22:39;;;;;;;16.45;11.03;;;;;;;23.27;79.31;99747.31;1725793;81;27874;-69
2021/07/03 10:25:15;;;;;;;12.68;11.05;;;;;;;23.42;78.97;99750.11;1727118;80;25717;-68
2021/07/03 10:27:54;;;;;;;12.98;11.00;;;;;;;23.55;79.38;99749.02;1713135;80;27323;-68
2021/07/03 10:30:29;;;;;;;;;;;;;;;23.73;79.18;99748.02;1737621;79;25734;-67
2021/07/03 10:33:09;;;;;;;13.43;10.72;;;;;;;23.92;78.97;99752.94;1735069;80;25913;-67
2021/07/03 10:35:56;;;;;;;11.85;9.65;;;;;;;24.02;77.44;99746.53;1718749;81;25948;-67
2021/07/03 10:38:30;;;;;;;13.70;11.00;;;;;;;24.07;77.04;99745.27;1729044;80;26610;-66
2021/07/03 10:41:19;;;;;;;12.00;10.15;;;;;;;24.10;76.32;99743.66;1745299;80;27392;-66
2021/07/03 10:44:07;;;;;;;13.25;10.78;;;;;;;24.08;75.95;99746.06;1712772;81;25705;-67
2021/07/03 10:46:39;;;;;;;12.55;10.20;;;;;;;24.14;75.73;99743.01;1731511;79;25783;-68
2021/07/03 10:49:10;;;;;;;10.78;9.70;;;;;;;24.16;75.36;99743.38;1729121;81;25816;-66
2021/07/03 10:51:47;;;;;;;11.78;10.45;;;;;;;24.18;75.15;99737.62;1731082;80;25784;-67
2021/07/03 10:54:29;;;;;;;11.12;9.93;;;;;;;24.21;75.03;99731.28;1731482;80;28056;-66
2021/07/03 10:57:08;;;;;;;11.38;10.10;;;;;;;24.23;74.07;99730.25;1751696;79;26152;-66
2021/07/03 10:59:43;;;;;;;13.80;10.28;;;;;;;24.15;73.72;99729.39;1730141;80;25954;-65
2021/07/03 11:02:18;;;;;;;12.85;10.05;;;;;;;24.08;73.50;99725.34;1713585;81;25712;-64
2021/07/03 11:04:53;;;;;;;11.45;10.43;;;;;;;24.00;73.51;99732.33;1743384;80;25758;-65
2021/07/03 11:07:23;;;;;;;16.15;10.90;;;;;;;23.92;73.52;99722.56;1767963;79;27523;-66
2021/07/03 11:09:49;;;;;;;12.70;10.20;;;;;;;23.90;73.72;99729.70;1772206;78;25709;-67
2021/07/03 11:12:23;;;;;;;11.70;10.60;;;;;;;23.89;74.10;99728.13;1723917;81;25824;-69
2021/07/03 11:15:08;;;;;;;13.05;10.05;;;;;;;23.91;74.18;99736.20;1704956;81;27769;-66
2021/07/03 11:17:35;;;;;;;12.90;10.38;;;;;;;23.90;73.62;99726.95;1732702;81;26079;-69
2021/07/03 11:20:01;;;;;;;11.38;10.15;;;;;;;23.93;73.66;99733.80;1695798;83;27310;-69
2021/07/03 11:22:30;;;;;;;13.10;10.28;;;;;;;23.95;73.57;99734.77;1689243;81;25732;-70
2021/07/03 11:24:59;;;;;;;13.53;10.53;;;;;;;23.95;73.62;99732.01;1736195;80;26144;-72
2021/07/03 11:27:36;;;;;;;11.00;9.87;;;;;;;23.97;73.45;99724.89;1753608;80;25989;-68
2021/07/03 11:30:17;;;;;;;11.65;10.30;;;;;;;23.94;72.80;99729.05;1741747;79;25775;-68
2021/07/03 11:32:57;;;;;;;14.68;10.75;;;;;;;23.88;72.88;99726.58;1729274;80;26908;-70
2021/07/03 11:35:26;;;;;;;11.08;9.90;;;;;;;23.80;72.91;99720.32;1751800;79;26245;-72
2021/07/03 11:37:53;;;;;;;12.58;9.73;;;;;;;23.77;73.02;99726.66;1754227;80;25846;-72